createdAt,value
2024-03-16T00:03:06.295Z,9.70
2024-03-16T00:07:09.843Z,9.70
2024-03-16T00:11:14.510Z,9.60
2024-03-16T00:15:18.101Z,9.60
2024-03-16T00:19:21.822Z,9.50
2024-03-16T00:23:25.392Z,9.50
2024-03-16T00:27:28.949Z,9.40
2024-03-16T00:31:32.734Z,9.40
2024-03-16T00:35:36.860Z,9.30
2024-03-16T00:39:41.400Z,9.20
2024-03-16T00:43:44.935Z,9.10
2024-03-16T00:47:48.520Z,9.00
2024-03-16T00:51:52.601Z,9.00
2024-03-16T00:55:56.381Z,8.90
2024-03-16T00:59:59.827Z,8.90
2024-03-16T01:04:03.847Z,8.80
2024-03-16T01:08:07.472Z,8.80
2024-03-16T01:12:11.329Z,8.70
2024-03-16T01:16:14.833Z,8.60
2024-03-16T01:20:18.634Z,8.50
2024-03-16T01:24:22.140Z,8.40
2024-03-16T01:28:25.666Z,8.40
2024-03-16T01:32:29.517Z,8.40
2024-03-16T01:36:33.483Z,8.30
2024-03-16T01:40:37.309Z,8.20
2024-03-16T01:44:42.016Z,8.20
2024-03-16T01:48:45.480Z,8.20
2024-03-16T01:52:49.322Z,8.10
2024-03-16T01:56:52.763Z,8.10
2024-03-16T02:00:56.666Z,8.10
2024-03-16T02:05:01.491Z,8.10
2024-03-16T02:09:05.092Z,8.10
2024-03-16T02:13:08.877Z,8.10
2024-03-16T02:17:12.444Z,8.10
2024-03-16T02:21:16.452Z,8.20
2024-03-16T02:25:20.533Z,8.30
2024-03-16T02:29:24.854Z,8.30
2024-03-16T02:33:29.134Z,8.40
2024-03-16T02:37:34.069Z,8.40
2024-03-16T02:41:38.117Z,8.50
2024-03-16T02:45:41.662Z,8.50
2024-03-16T02:49:45.201Z,8.50
2024-03-16T02:53:49.062Z,8.50
2024-03-16T02:57:52.598Z,8.50
2024-03-16T03:01:58.762Z,8.50
2024-03-16T03:06:04.472Z,8.50
2024-03-16T03:10:09.942Z,8.40
2024-03-16T03:14:16.418Z,8.50
2024-03-16T03:18:20.719Z,8.40
2024-03-16T03:22:24.421Z,8.40
2024-03-16T03:26:30.577Z,8.40
2024-03-16T03:30:36.321Z,8.40
2024-03-16T03:34:39.713Z,8.30
2024-03-16T03:38:44.456Z,8.30
2024-03-16T03:42:49.637Z,8.30
2024-03-16T03:46:53.524Z,8.20
2024-03-16T03:50:56.925Z,8.20
2024-03-16T03:55:01.729Z,8.20
2024-03-16T03:59:05.351Z,8.10
2024-03-16T04:03:08.910Z,8.10
2024-03-16T04:07:12.373Z,8.10
2024-03-16T04:11:16.245Z,8.10
2024-03-16T04:15:19.703Z,8.10
2024-03-16T04:19:23.530Z,8.10
2024-03-16T04:23:26.995Z,8.10
2024-03-16T04:27:30.655Z,8.10
2024-03-16T04:31:34.087Z,8.00
2024-03-16T04:35:37.667Z,8.00
2024-03-16T04:39:44.944Z,7.90
2024-03-16T04:43:49.419Z,7.80
2024-03-16T04:47:52.771Z,7.80
2024-03-16T04:51:56.628Z,7.70
2024-03-16T04:56:00.095Z,7.70
2024-03-16T05:00:04.064Z,7.70
2024-03-16T05:04:07.803Z,7.70
2024-03-16T05:08:11.463Z,7.80
2024-03-16T05:12:15.079Z,7.80
2024-03-16T05:16:18.585Z,7.90
2024-03-16T05:20:22.943Z,7.90
2024-03-16T05:24:26.648Z,8.00
2024-03-16T05:28:30.196Z,8.00
2024-03-16T05:32:33.748Z,8.10
2024-03-16T05:36:38.287Z,8.10
2024-03-16T05:40:43.082Z,8.10
2024-03-16T05:44:46.728Z,8.20
2024-03-16T05:48:50.234Z,8.20
2024-03-16T05:52:54.022Z,8.20
2024-03-16T05:56:57.556Z,8.30
2024-03-16T06:01:02.624Z,8.30
2024-03-16T06:05:06.282Z,8.40
2024-03-16T06:09:10.087Z,8.40
2024-03-16T06:13:14.716Z,8.40
2024-03-16T06:17:18.187Z,8.50
2024-03-16T06:21:21.823Z,8.50
2024-03-16T06:25:25.752Z,8.50
2024-03-16T06:29:32.163Z,8.60
2024-03-16T06:33:35.569Z,8.60
2024-03-16T06:37:39.349Z,8.60
2024-03-16T06:41:42.884Z,8.70
2024-03-16T06:45:46.591Z,8.80
2024-03-16T06:49:51.233Z,8.80
2024-03-16T06:53:54.932Z,8.90
2024-03-16T06:57:58.404Z,8.90
2024-03-16T07:02:02.172Z,8.90
2024-03-16T07:06:07.818Z,8.90
2024-03-16T07:10:11.498Z,8.90
2024-03-16T07:14:15.231Z,8.90
2024-03-16T07:18:18.826Z,8.90
2024-03-16T07:22:22.673Z,8.80
2024-03-16T07:26:26.323Z,8.90
2024-03-16T07:30:29.879Z,9.20
2024-03-16T07:34:34.930Z,9.40
2024-03-16T07:38:38.562Z,9.50
2024-03-16T07:42:44.146Z,9.80
2024-03-16T07:46:49.649Z,10.00
2024-03-16T07:50:53.222Z,9.90
2024-03-16T07:54:57.082Z,10.00
2024-03-16T07:59:00.642Z,10.00
2024-03-16T08:03:04.422Z,9.90
2024-03-16T08:07:08.355Z,10.00
2024-03-16T08:11:11.880Z,10.10
2024-03-16T08:15:15.599Z,10.10
2024-03-16T08:19:19.923Z,10.00
2024-03-16T08:23:23.636Z,9.90
2024-03-16T08:27:32.011Z,9.90
2024-03-16T08:31:38.165Z,9.80
2024-03-16T08:35:42.114Z,10.00
2024-03-16T08:39:46.159Z,10.20
2024-03-16T08:43:49.797Z,10.50
2024-03-16T08:47:53.375Z,10.50
2024-03-16T08:51:58.795Z,10.80
2024-03-16T08:56:05.427Z,11.00
2024-03-16T09:00:13.651Z,11.10
2024-03-16T09:04:17.365Z,11.00
2024-03-16T09:08:20.912Z,11.10
2024-03-16T09:12:24.950Z,11.10
2024-03-16T09:16:28.449Z,11.20
2024-03-16T09:20:32.380Z,11.20
2024-03-16T09:24:36.560Z,11.20
2024-03-16T09:28:40.251Z,11.30
2024-03-16T09:32:44.014Z,11.30
2024-03-16T09:36:47.824Z,11.40
2024-03-16T09:40:57.322Z,11.60
